Airfield :
LOGIN :

Register | Disclaimer

   EN    FR    IT 

 










Legend :    VFR   Marginal VFR   IFR   Intensive IFR   Very Intensive IFR
Visi :
Ceiling :
>= 8 km
>= 3000ft
5 to 8 km
1000 to 3000 ft
1500m to 5 km
500 to 1000 ft
800 to 1500m
200 to 500 ft
< 800m
< 200 ft
Symbols :   Thunderstorms  Fog  Heavy snow  Heavy precipitations  Wind > 20 kt
SIGMETs :     Misc.  Thunderstorms  Icing  Turbulence  Mountain Waves  Volcanic Ashes







- Airport Elevation : 27 ft
- IATA code : PMI


LEPA - Palma de Mallorca

CURRENT METAR :
  • 301600Z 21013KT 160V240 9999 FEW026 BKN030 18/14 Q1012 NOSIG

EXPIRED METARs :
  • 301530Z 21013KT 180V240 9999 FEW026 BKN030 18/14 Q1012 NOSIG
  • 301500Z 22014KT 9999 FEW026 BKN030 18/14 Q1012 NOSIG
  • 301430Z 21013KT 180V240 9999 FEW026 BKN030 19/14 Q1012 NOSIG
  • 301400Z 21013KT 180V240 9999 FEW026 BKN030 18/13 Q1013 NOSIG
  • 301330Z 21013KT 170V230 9999 FEW026 BKN030 18/13 Q1013 NOSIG

TAF TAF LEPA
Valid from the 30 at 12:00 until the 01 at 12:00 UTC


301100Z 3012/0112 22012KT 9999 FEW020 OVC030 TX19/3012Z TN09/0106Z
BECMG 0100/0103 34012KT
TEMPO 0106/0112 06009KT
No reported NOTAMs for that airfield.
2 SIGMETs reported for the Barcelona FIR (LECB) :
 
Embedded thunderstorms
LECB SIGMET 2 VALID 301622/301900 LEVA
LECB BARCELONA FIR/UIR EMBD TS OBS AT 1622Z WI N4240 W00002 - N4140 W00010 - N4140 E00140 - N4230 E002 TOP FL360 MOV E NC=
Severe mountain waves
LECB SIGMET 1 VALID 301333/301700 LEVA
LECB BARCELONA FIR/UIR SEV MTW OBS AT 1333Z N OF LINE N4230 W00010 - N4210 E00220 FL060/350 STNR NC=



MET'MAP, your aeronautical weather chart ! - Copyright ORBIFLY December 2007 - Disclaimer

ORBIFLY MET'MAP TEAM :

Programming & Development : Alexandra Zaïnal
Concept & Development : Baudouin d'Aumeries
Co-Development & Prog : Marc-Olivier Méhu
Technical & hardware support : Manuel Goepfert

Contact : metmap@orbifly.com




SOURCES & CREDITS :

   NOAA